SCCF

El Loa Airport

Airport
ICAO code
SCCF
IATA Code
CJC
Summary
ICAO Region
CARSAM
ICAO Territory
Location

Calama, Antofagasta

Serving
Calama
Elevation
7543 ft
Coordinates
22° 29' 53" S , 68° 54' 13" W
KCC
Metar
Observation
SCCF 050400Z VRB02KT 9999 SCT060 BKN100 14/11 Q1027
Station
CALAMA/EL LOA
Date/Time
2023-02-05 05:00:00
Wind speed
02 kts
Lowest cloud amount
scattered clouds
Temperature
14°C
Dew point
11°C
Humidity
82%
QNH
1027 hPa
Weather condition
n/a

Airport serving Calama in northern Chile.

Climatology

Cold desert climate (Köppen climate classification BWk)

Runways

Designator Length Width Surface Rops
10/28 2889 30 ASP No/No

Airport map

Aerial View

SKYbrary Partners:

Safety knowledge contributed by: